createdAt,value
2018-12-29T00:01:41.270Z,14.03
2018-12-29T00:04:12.802Z,14.93
2018-12-29T00:06:43.212Z,13.60
2018-12-29T00:09:13.561Z,14.63
2018-12-29T00:11:43.919Z,13.47
2018-12-29T00:14:14.276Z,15.23
2018-12-29T00:16:44.697Z,16.10
2018-12-29T00:19:15.222Z,16.00
2018-12-29T00:21:45.627Z,15.70
2018-12-29T00:24:16.018Z,16.30
2018-12-29T00:26:46.439Z,14.53
2018-12-29T00:29:16.773Z,15.17
2018-12-29T00:31:47.202Z,14.30
2018-12-29T00:34:17.538Z,14.57
2018-12-29T00:36:50.008Z,16.27
2018-12-29T00:39:20.374Z,16.70
2018-12-29T00:41:50.700Z,16.43
2018-12-29T00:44:21.069Z,16.70
2018-12-29T00:46:51.564Z,16.60
2018-12-29T00:49:21.912Z,17.50
2018-12-29T00:51:52.242Z,16.03
2018-12-29T00:54:22.604Z,17.37
2018-12-29T00:56:53.024Z,16.37
2018-12-29T00:59:23.368Z,17.57
2018-12-29T01:01:53.740Z,16.40
2018-12-29T01:04:24.162Z,17.23
2018-12-29T01:06:54.606Z,17.27
2018-12-29T01:09:24.957Z,16.90
2018-12-29T01:11:57.681Z,16.57
2018-12-29T01:14:28.024Z,17.43
2018-12-29T01:16:58.355Z,17.77
2018-12-29T01:19:28.750Z,16.03
2018-12-29T01:22:00.771Z,17.40
2018-12-29T01:24:31.272Z,19.60
2018-12-29T01:27:01.613Z,17.17
2018-12-29T01:29:39.388Z,17.50
2018-12-29T01:32:09.727Z,18.17
2018-12-29T01:34:40.120Z,18.27
2018-12-29T01:37:10.608Z,19.33
2018-12-29T01:39:41.024Z,18.80
2018-12-29T01:42:11.551Z,18.30
2018-12-29T01:44:41.936Z,17.43
2018-12-29T01:47:12.379Z,17.97
2018-12-29T01:49:42.773Z,19.33
2018-12-29T01:52:13.127Z,19.80
2018-12-29T01:54:43.675Z,19.30
2018-12-29T01:57:14.002Z,18.83
2018-12-29T01:59:44.437Z,19.90
2018-12-29T02:02:14.804Z,21.23
2018-12-29T02:04:46.505Z,18.97
2018-12-29T02:07:16.908Z,19.87
2018-12-29T02:09:47.244Z,21.00
2018-12-29T02:12:17.559Z,19.67
2018-12-29T02:14:47.858Z,21.27
2018-12-29T02:17:18.232Z,21.63
2018-12-29T02:19:48.734Z,20.73
2018-12-29T02:22:21.409Z,21.13
2018-12-29T02:24:51.934Z,20.80
2018-12-29T02:27:22.371Z,23.20
2018-12-29T02:29:52.756Z,21.63
2018-12-29T02:32:23.144Z,22.10
2018-12-29T02:34:53.486Z,20.83
2018-12-29T02:37:23.898Z,21.70
2018-12-29T02:40:03.355Z,21.67
2018-12-29T02:42:33.918Z,22.23
2018-12-29T02:45:04.425Z,22.27
2018-12-29T02:47:35.137Z,22.70
2018-12-29T02:50:05.733Z,21.27
2018-12-29T02:52:36.103Z,20.40
2018-12-29T02:55:06.650Z,21.10
2018-12-29T02:57:40.458Z,22.57
2018-12-29T03:00:10.839Z,21.13
2018-12-29T03:02:41.160Z,23.23
2018-12-29T03:05:11.504Z,21.47
2018-12-29T03:07:41.870Z,22.97
2018-12-29T03:10:12.232Z,22.60
2018-12-29T03:12:42.703Z,22.30
2018-12-29T03:15:13.098Z,22.87
2018-12-29T03:17:43.434Z,24.47
2018-12-29T03:20:13.779Z,22.50
2018-12-29T03:22:44.164Z,23.63
2018-12-29T03:25:14.586Z,24.90
2018-12-29T03:27:45.006Z,24.70
2018-12-29T03:30:18.486Z,24.93
2018-12-29T03:32:49.015Z,25.47
2018-12-29T03:35:19.363Z,23.73
2018-12-29T03:37:49.932Z,25.67
2018-12-29T03:40:20.261Z,26.30
2018-12-29T03:42:50.631Z,23.67
2018-12-29T03:45:21.045Z,26.43
2018-12-29T03:47:51.409Z,25.07
2018-12-29T03:50:21.928Z,25.83
2018-12-29T03:52:52.711Z,27.10
2018-12-29T03:55:23.071Z,26.50
2018-12-29T03:57:53.740Z,25.93
2018-12-29T04:00:24.111Z,26.67
2018-12-29T04:02:54.506Z,24.97
2018-12-29T04:05:24.811Z,27.07
2018-12-29T04:07:55.239Z,25.93
2018-12-29T04:10:25.633Z,25.73
2018-12-29T04:12:58.976Z,28.03
2018-12-29T04:15:29.474Z,26.97
2018-12-29T04:17:59.970Z,26.07
2018-12-29T04:20:30.393Z,26.27
2018-12-29T04:23:00.788Z,25.10
2018-12-29T04:25:31.045Z,25.77
2018-12-29T04:28:01.346Z,26.80
2018-12-29T04:30:31.700Z,27.53
2018-12-29T04:33:02.060Z,27.33
2018-12-29T04:35:32.484Z,29.10
2018-12-29T04:38:02.774Z,25.40
2018-12-29T04:40:33.211Z,27.23
2018-12-29T04:43:03.691Z,28.30
2018-12-29T04:45:34.069Z,26.23
2018-12-29T04:48:04.369Z,27.23
2018-12-29T04:50:34.806Z,26.00
2018-12-29T04:53:05.157Z,27.23
2018-12-29T04:55:38.295Z,27.13
2018-12-29T04:58:08.639Z,27.80
2018-12-29T05:00:38.887Z,26.83
2018-12-29T05:03:09.211Z,27.07
2018-12-29T05:05:39.539Z,26.07
2018-12-29T05:08:09.851Z,26.70
2018-12-29T05:10:40.116Z,26.90
2018-12-29T05:13:10.427Z,27.73
2018-12-29T05:15:40.749Z,27.30
2018-12-29T05:18:11.183Z,28.90
2018-12-29T05:20:41.501Z,27.17
2018-12-29T05:23:11.872Z,28.57
2018-12-29T05:25:42.253Z,29.03
2018-12-29T05:28:17.164Z,28.40
2018-12-29T05:30:47.455Z,27.40
2018-12-29T05:33:17.736Z,26.73
2018-12-29T05:35:47.993Z,28.40
2018-12-29T05:38:18.373Z,27.80
2018-12-29T05:40:48.668Z,27.43
2018-12-29T05:43:18.952Z,25.70
2018-12-29T05:45:49.233Z,26.27
2018-12-29T05:48:19.587Z,26.63
2018-12-29T05:50:49.919Z,25.07
2018-12-29T05:53:20.317Z,24.30
2018-12-29T05:55:50.639Z,22.87
2018-12-29T05:58:21.177Z,20.80
2018-12-29T06:00:51.421Z,20.47
2018-12-29T06:03:21.728Z,20.93
2018-12-29T06:05:52.026Z,18.60
2018-12-29T06:08:22.383Z,18.87
2018-12-29T06:10:52.668Z,18.00
2018-12-29T06:13:22.975Z,17.83
2018-12-29T06:15:53.281Z,19.47
2018-12-29T06:18:23.641Z,18.60
2018-12-29T06:20:54.042Z,19.13
2018-12-29T06:23:24.324Z,18.70
2018-12-29T06:25:54.589Z,18.30
2018-12-29T06:28:25.003Z,19.87
2018-12-29T06:30:55.328Z,18.63
2018-12-29T06:33:27.126Z,18.10
2018-12-29T06:35:57.387Z,18.70
2018-12-29T06:38:27.719Z,17.93
2018-12-29T06:40:58.012Z,18.53
2018-12-29T06:43:28.388Z,18.77
2018-12-29T06:45:58.867Z,20.50
2018-12-29T06:48:29.312Z,18.40
2018-12-29T06:50:59.705Z,18.03
2018-12-29T06:53:30.029Z,18.13
2018-12-29T06:56:00.327Z,17.17
2018-12-29T06:58:30.539Z,17.30
2018-12-29T07:01:00.869Z,17.03
2018-12-29T07:03:31.093Z,16.37
2018-12-29T07:06:01.528Z,16.50
2018-12-29T07:08:31.888Z,16.83
2018-12-29T07:11:02.231Z,15.97
2018-12-29T07:13:32.517Z,14.67
2018-12-29T07:16:02.887Z,15.53
2018-12-29T07:18:33.250Z,15.67
2018-12-29T07:21:03.491Z,15.50
2018-12-29T07:23:33.746Z,16.33
2018-12-29T07:26:04.091Z,15.63
2018-12-29T07:28:34.336Z,15.20
2018-12-29T07:31:04.645Z,14.90
2018-12-29T07:33:35.011Z,14.67
2018-12-29T07:36:05.311Z,14.97
2018-12-29T07:38:35.731Z,15.43
2018-12-29T07:41:06.036Z,15.93
2018-12-29T07:43:36.355Z,15.50
2018-12-29T07:46:07.107Z,15.63
2018-12-29T07:48:37.497Z,15.83
2018-12-29T07:51:08.250Z,15.13
2018-12-29T07:53:38.662Z,14.83
2018-12-29T07:56:09.089Z,14.37
2018-12-29T07:58:40.920Z,15.37
2018-12-29T08:01:11.677Z,14.90
2018-12-29T08:03:41.977Z,16.93
2018-12-29T08:06:12.340Z,16.43
2018-12-29T08:08:42.821Z,18.07
2018-12-29T08:11:13.225Z,18.13
2018-12-29T08:13:43.651Z,17.60
2018-12-29T08:16:14.173Z,18.00
2018-12-29T08:18:46.986Z,18.80
2018-12-29T08:21:18.746Z,18.50
2018-12-29T08:23:49.282Z,18.73
2018-12-29T08:26:19.726Z,18.80
2018-12-29T08:28:50.178Z,18.40
2018-12-29T08:31:21.816Z,19.70
2018-12-29T08:33:52.277Z,19.27
2018-12-29T08:36:22.717Z,19.77
2018-12-29T08:38:53.581Z,18.83
2018-12-29T08:41:24.048Z,19.90
2018-12-29T08:43:54.422Z,17.90
2018-12-29T08:46:24.815Z,18.07
2018-12-29T08:48:55.281Z,19.63
2018-12-29T08:51:25.858Z,18.03
2018-12-29T08:53:56.272Z,17.40
2018-12-29T08:56:26.690Z,17.20
2018-12-29T08:58:57.120Z,17.63
2018-12-29T09:01:27.569Z,18.43
2018-12-29T09:03:57.985Z,17.37
2018-12-29T09:06:28.619Z,16.17
2018-12-29T09:08:59.043Z,16.67
2018-12-29T09:11:29.574Z,16.13
2018-12-29T09:14:00.143Z,13.70
2018-12-29T09:16:30.532Z,14.87
2018-12-29T09:19:01.115Z,15.13
2018-12-29T09:21:31.745Z,14.30
2018-12-29T09:24:02.251Z,14.60
2018-12-29T09:26:32.884Z,14.20
2018-12-29T09:29:03.318Z,14.37
2018-12-29T09:31:33.749Z,13.80
2018-12-29T09:34:04.208Z,12.60
2018-12-29T09:36:34.560Z,13.67
2018-12-29T09:39:06.650Z,12.70
2018-12-29T09:41:37.048Z,12.43
2018-12-29T09:44:07.452Z,13.03
2018-12-29T09:46:37.996Z,13.63
2018-12-29T09:49:08.568Z,14.67
2018-12-29T09:51:39.110Z,14.27
2018-12-29T09:54:09.634Z,15.93
2018-12-29T09:56:40.030Z,14.13
2018-12-29T09:59:10.486Z,13.00
2018-12-29T10:01:40.950Z,13.43
2018-12-29T10:04:11.452Z,13.53
2018-12-29T10:06:41.926Z,13.13
2018-12-29T10:09:12.405Z,12.87
2018-12-29T10:11:42.812Z,12.37
2018-12-29T10:14:13.240Z,12.97
2018-12-29T10:16:43.603Z,14.33
2018-12-29T10:19:14.402Z,13.00
2018-12-29T10:21:44.980Z,10.57
2018-12-29T10:24:15.529Z,10.43
2018-12-29T10:26:48.927Z,9.87
2018-12-29T10:29:19.647Z,9.73
2018-12-29T10:31:50.135Z,8.40
2018-12-29T10:34:20.632Z,8.23
2018-12-29T10:36:51.022Z,8.37
2018-12-29T10:39:21.400Z,9.70
2018-12-29T10:41:52.026Z,8.80
2018-12-29T10:44:22.589Z,9.80
2018-12-29T10:46:53.005Z,8.23
2018-12-29T10:49:23.449Z,8.57
2018-12-29T10:51:53.897Z,8.87
2018-12-29T10:54:24.470Z,8.90
2018-12-29T10:56:55.060Z,9.03
2018-12-29T10:59:25.464Z,9.20
2018-12-29T11:01:56.041Z,8.63
2018-12-29T11:04:26.542Z,8.37
2018-12-29T11:06:56.978Z,8.60
2018-12-29T11:09:27.381Z,8.63
2018-12-29T11:11:58.166Z,8.03
2018-12-29T11:14:28.797Z,8.90
2018-12-29T11:16:59.409Z,7.97
2018-12-29T11:19:30.112Z,7.53
2018-12-29T11:22:11.189Z,8.60
2018-12-29T11:24:41.918Z,7.30
2018-12-29T11:27:15.198Z,6.87
2018-12-29T11:29:45.971Z,7.30
2018-12-29T11:32:16.378Z,7.07
2018-12-29T11:34:46.878Z,7.63
2018-12-29T11:37:17.536Z,7.57
2018-12-29T11:39:48.038Z,7.23
2018-12-29T11:42:19.201Z,7.07
2018-12-29T11:44:49.642Z,7.23
2018-12-29T11:47:22.804Z,7.77
2018-12-29T11:49:53.272Z,7.30
2018-12-29T11:52:25.527Z,7.83
2018-12-29T11:54:56.065Z,6.50
2018-12-29T11:57:29.282Z,7.27
2018-12-29T11:59:59.856Z,7.67
2018-12-29T12:02:33.852Z,8.87
2018-12-29T12:05:04.724Z,7.60
2018-12-29T12:07:35.133Z,9.00
2018-12-29T12:10:05.586Z,9.60
2018-12-29T12:12:36.421Z,9.83
2018-12-29T12:15:07.236Z,10.23
2018-12-29T12:17:37.971Z,10.50
2018-12-29T12:20:08.400Z,12.43
2018-12-29T12:22:38.785Z,11.83
2018-12-29T12:25:09.336Z,11.23
2018-12-29T12:27:40.850Z,11.97
2018-12-29T12:30:11.403Z,12.13
2018-12-29T12:32:41.969Z,10.73
2018-12-29T12:35:12.465Z,10.37
2018-12-29T12:37:42.881Z,11.00
2018-12-29T12:40:15.285Z,11.50
2018-12-29T12:42:45.822Z,10.80
2018-12-29T12:45:16.212Z,12.43
2018-12-29T12:47:46.745Z,10.83
2018-12-29T12:50:18.703Z,10.60
2018-12-29T12:52:49.102Z,10.20
2018-12-29T12:55:20.578Z,10.10
2018-12-29T12:57:51.938Z,12.50
2018-12-29T13:00:22.692Z,9.93
2018-12-29T13:02:56.147Z,10.40
2018-12-29T13:05:26.417Z,9.60
2018-12-29T13:07:56.837Z,9.13
2018-12-29T13:10:27.445Z,9.27
2018-12-29T13:12:57.859Z,9.97
2018-12-29T13:15:28.306Z,9.57
2018-12-29T13:17:58.873Z,9.37
2018-12-29T13:20:35.924Z,9.87
2018-12-29T13:23:06.533Z,8.50
2018-12-29T13:25:36.880Z,7.97
2018-12-29T13:28:07.224Z,8.53
2018-12-29T13:30:57.284Z,9.17
2018-12-29T13:33:27.769Z,9.53
2018-12-29T13:35:58.115Z,9.10
2018-12-29T13:38:29.039Z,8.17
2018-12-29T13:40:59.466Z,9.67
2018-12-29T13:43:29.928Z,9.57
2018-12-29T13:46:00.435Z,9.47
2018-12-29T13:48:30.963Z,9.37
2018-12-29T13:51:01.261Z,9.77
2018-12-29T13:53:31.616Z,8.97
2018-12-29T13:56:02.284Z,9.00
2018-12-29T13:58:32.725Z,9.73
2018-12-29T14:01:03.146Z,9.17
2018-12-29T14:03:33.773Z,8.53
2018-12-29T14:06:04.432Z,8.87
2018-12-29T14:08:36.329Z,8.40
2018-12-29T14:11:08.468Z,8.43
2018-12-29T14:13:38.891Z,7.67
2018-12-29T14:16:09.251Z,8.90
2018-12-29T14:18:39.570Z,8.13
2018-12-29T14:21:10.397Z,8.17
2018-12-29T14:23:40.822Z,7.43
2018-12-29T14:26:15.257Z,9.33
2018-12-29T14:28:46.030Z,8.37
2018-12-29T14:31:16.806Z,8.30
2018-12-29T14:33:47.398Z,7.80
2018-12-29T14:36:18.372Z,7.53
2018-12-29T14:38:52.674Z,7.57
2018-12-29T14:41:25.237Z,7.70
2018-12-29T14:43:57.606Z,7.20
2018-12-29T14:46:28.168Z,6.70
2018-12-29T14:48:58.820Z,7.60
2018-12-29T14:51:29.322Z,6.87
2018-12-29T14:53:59.715Z,6.77
2018-12-29T14:56:30.067Z,7.03
2018-12-29T14:59:00.553Z,7.27
2018-12-29T15:01:30.918Z,6.50
2018-12-29T15:04:01.640Z,7.20
2018-12-29T15:06:33.330Z,6.07
2018-12-29T15:09:05.277Z,7.60
2018-12-29T15:11:37.960Z,6.93
2018-12-29T15:14:08.712Z,6.80
2018-12-29T15:16:39.480Z,7.47
2018-12-29T15:19:10.900Z,6.23
2018-12-29T15:21:41.545Z,5.80
2018-12-29T15:24:12.193Z,6.13
2018-12-29T15:26:42.821Z,6.10
2018-12-29T15:29:13.932Z,5.80
2018-12-29T15:31:44.595Z,6.20
2018-12-29T15:34:14.971Z,5.97
2018-12-29T15:36:48.268Z,4.83
2018-12-29T15:39:19.317Z,4.83
2018-12-29T15:41:52.401Z,5.43
2018-12-29T15:44:23.473Z,4.13
2018-12-29T15:46:56.964Z,4.10
2018-12-29T15:49:36.395Z,4.80
2018-12-29T15:52:06.843Z,4.07
2018-12-29T15:54:37.833Z,5.30
2018-12-29T15:57:09.102Z,4.77
2018-12-29T15:59:40.025Z,4.47
2018-12-29T16:02:15.113Z,4.73
2018-12-29T16:04:51.323Z,4.97
2018-12-29T16:07:21.770Z,3.87
2018-12-29T16:09:52.304Z,4.40
2018-12-29T16:12:22.829Z,4.60
2018-12-29T16:14:53.311Z,5.13
2018-12-29T16:17:25.351Z,5.20
2018-12-29T16:19:56.419Z,5.07
2018-12-29T16:22:26.923Z,5.63
2018-12-29T16:24:57.347Z,4.67
2018-12-29T16:27:27.881Z,4.87
2018-12-29T16:29:58.284Z,4.37
2018-12-29T16:32:28.836Z,5.30
2018-12-29T16:34:59.308Z,11.30
2018-12-29T16:37:29.756Z,4.20
2018-12-29T16:40:00.529Z,4.57
2018-12-29T16:42:31.492Z,6.97
2018-12-29T16:45:03.494Z,8.60
2018-12-29T16:47:35.628Z,5.37
2018-12-29T16:50:07.301Z,6.27
2018-12-29T16:52:38.467Z,5.07
2018-12-29T16:55:09.813Z,8.33
2018-12-29T16:57:40.934Z,5.60
2018-12-29T17:00:11.411Z,4.23
2018-12-29T17:02:41.943Z,4.90
2018-12-29T17:05:13.105Z,4.93
2018-12-29T17:07:43.553Z,4.43
2018-12-29T17:10:14.042Z,4.40
2018-12-29T17:12:44.988Z,4.03
2018-12-29T17:15:15.776Z,4.80
2018-12-29T17:17:47.532Z,5.07
2018-12-29T17:20:17.972Z,5.13
2018-12-29T17:22:48.412Z,5.23
2018-12-29T17:25:18.798Z,5.37
2018-12-29T17:27:49.108Z,6.20
2018-12-29T17:30:21.530Z,5.67
2018-12-29T17:32:51.905Z,5.47
2018-12-29T17:35:22.628Z,5.37
2018-12-29T17:37:53.099Z,5.10
2018-12-29T17:40:23.532Z,5.73
2018-12-29T17:42:56.729Z,5.43
2018-12-29T17:45:27.264Z,5.40
2018-12-29T17:47:57.859Z,6.90
2018-12-29T17:50:31.875Z,5.73
2018-12-29T17:53:02.441Z,6.93
2018-12-29T17:55:33.002Z,6.67
2018-12-29T17:58:04.037Z,7.23
2018-12-29T18:00:34.657Z,6.03
2018-12-29T18:03:05.144Z,5.53
2018-12-29T18:05:35.688Z,6.43
2018-12-29T18:08:06.491Z,6.00
2018-12-29T18:10:36.937Z,5.83
2018-12-29T18:13:07.334Z,5.67
2018-12-29T18:15:37.800Z,5.63
2018-12-29T18:18:08.361Z,5.87
2018-12-29T18:20:39.130Z,5.87
2018-12-29T18:23:11.292Z,5.57
2018-12-29T18:25:41.783Z,5.53
2018-12-29T18:28:12.373Z,4.57
2018-12-29T18:30:42.885Z,3.50
2018-12-29T18:33:13.829Z,4.57
2018-12-29T18:35:44.307Z,4.60
2018-12-29T18:38:14.938Z,4.83
2018-12-29T18:40:45.387Z,4.23
2018-12-29T18:43:15.883Z,4.37
2018-12-29T18:45:46.363Z,4.30
2018-12-29T18:48:16.911Z,3.73
2018-12-29T18:50:47.677Z,4.70
2018-12-29T18:53:19.435Z,5.37
2018-12-29T18:55:52.371Z,5.20
2018-12-29T18:58:22.817Z,4.53
2018-12-29T19:00:53.447Z,4.67
2018-12-29T19:03:24.283Z,5.27
2018-12-29T19:05:54.727Z,5.17
2018-12-29T19:08:25.177Z,5.23
2018-12-29T19:10:55.636Z,6.00
2018-12-29T19:13:26.277Z,5.77
2018-12-29T19:15:57.071Z,4.90
2018-12-29T19:18:27.419Z,4.90
2018-12-29T19:20:57.887Z,4.37
2018-12-29T19:23:28.444Z,4.53
2018-12-29T19:25:59.167Z,4.03
2018-12-29T19:28:29.966Z,3.37
2018-12-29T19:31:00.499Z,6.30
2018-12-29T19:33:31.269Z,4.53
2018-12-29T19:36:02.161Z,4.90
2018-12-29T19:38:32.571Z,5.13
2018-12-29T19:41:03.007Z,5.20
2018-12-29T19:43:33.674Z,5.07
2018-12-29T19:46:04.415Z,5.30
2018-12-29T19:48:34.767Z,4.53
2018-12-29T19:51:05.248Z,4.23
2018-12-29T19:53:37.102Z,5.70
2018-12-29T19:56:09.038Z,4.30
2018-12-29T19:58:39.593Z,5.40
2018-12-29T20:01:10.125Z,7.77
2018-12-29T20:03:40.551Z,5.87
2018-12-29T20:06:12.244Z,5.97
2018-12-29T20:08:42.823Z,8.20
2018-12-29T20:11:13.506Z,5.93
2018-12-29T20:13:43.963Z,5.80
2018-12-29T20:16:14.447Z,6.07
2018-12-29T20:18:45.137Z,4.60
2018-12-29T20:21:15.651Z,4.70
2018-12-29T20:23:46.081Z,5.47
2018-12-29T20:26:16.521Z,4.87
2018-12-29T20:28:46.957Z,5.77
2018-12-29T20:31:17.384Z,5.77
2018-12-29T20:33:47.787Z,5.20
2018-12-29T20:36:18.401Z,7.17
2018-12-29T20:38:48.786Z,7.10
2018-12-29T20:41:19.744Z,8.63
2018-12-29T20:43:50.081Z,7.10
2018-12-29T20:46:20.762Z,10.03
2018-12-29T20:48:51.191Z,10.07
2018-12-29T20:51:21.689Z,8.83
2018-12-29T20:53:52.401Z,14.10
2018-12-29T20:56:22.922Z,9.30
2018-12-29T20:58:53.439Z,10.83
2018-12-29T21:01:23.931Z,10.23
2018-12-29T21:03:54.238Z,8.13
2018-12-29T21:06:24.872Z,5.57
2018-12-29T21:08:55.480Z,7.37
2018-12-29T21:11:25.987Z,5.50
2018-12-29T21:13:56.371Z,6.60
2018-12-29T21:16:27.034Z,6.60
2018-12-29T21:18:57.449Z,6.53
2018-12-29T21:21:27.890Z,6.27
2018-12-29T21:24:01.408Z,6.90
2018-12-29T21:26:31.937Z,6.40
2018-12-29T21:29:02.504Z,6.83
2018-12-29T21:31:32.996Z,6.30
2018-12-29T21:34:03.587Z,5.27
2018-12-29T21:36:35.584Z,7.63
2018-12-29T21:39:07.907Z,6.03
2018-12-29T21:41:39.605Z,6.23
2018-12-29T21:44:11.094Z,5.93
2018-12-29T21:46:41.544Z,6.77
2018-12-29T21:49:12.209Z,6.93
2018-12-29T21:51:42.983Z,7.40
2018-12-29T21:54:14.902Z,6.53
2018-12-29T21:56:47.784Z,6.20
2018-12-29T21:59:20.270Z,4.83
2018-12-29T22:01:51.579Z,5.87
2018-12-29T22:04:22.266Z,6.10
2018-12-29T22:06:52.685Z,5.77
2018-12-29T22:09:23.211Z,5.93
2018-12-29T22:11:53.665Z,5.30
2018-12-29T22:14:24.142Z,5.87
2018-12-29T22:16:54.507Z,5.23
2018-12-29T22:19:24.912Z,5.80
2018-12-29T22:21:55.248Z,5.47
2018-12-29T22:24:25.612Z,5.27
2018-12-29T22:26:56.035Z,5.50
2018-12-29T22:29:26.454Z,5.37
2018-12-29T22:31:56.778Z,6.13
2018-12-29T22:34:27.129Z,5.37
2018-12-29T22:36:57.532Z,5.93
2018-12-29T22:39:28.178Z,5.60
2018-12-29T22:41:58.556Z,5.30
2018-12-29T22:44:32.218Z,5.63
2018-12-29T22:47:02.593Z,5.80
2018-12-29T22:49:33.015Z,4.53
2018-12-29T22:52:03.422Z,6.17
2018-12-29T22:54:33.875Z,5.27
2018-12-29T22:57:04.242Z,5.03
2018-12-29T22:59:34.595Z,4.97
2018-12-29T23:02:04.943Z,4.67
2018-12-29T23:04:35.466Z,4.97
2018-12-29T23:07:06.217Z,5.23
2018-12-29T23:09:36.670Z,6.47
2018-12-29T23:12:07.041Z,5.53
2018-12-29T23:14:37.411Z,5.77
2018-12-29T23:17:08.077Z,5.47
2018-12-29T23:19:38.479Z,4.93
2018-12-29T23:22:08.796Z,5.87
2018-12-29T23:24:39.297Z,5.13
2018-12-29T23:27:09.701Z,5.30
2018-12-29T23:29:40.087Z,6.00
2018-12-29T23:32:12.220Z,5.30
2018-12-29T23:34:42.527Z,5.00
2018-12-29T23:37:12.904Z,6.30
2018-12-29T23:39:43.291Z,4.57
2018-12-29T23:42:13.688Z,6.17
2018-12-29T23:44:44.131Z,5.73
2018-12-29T23:47:14.504Z,4.33
2018-12-29T23:49:44.874Z,5.33
2018-12-29T23:52:15.704Z,6.37
2018-12-29T23:54:46.093Z,5.27
2018-12-29T23:57:16.705Z,6.33
2018-12-29T23:59:47.252Z,5.93
